createdAt,value
2022-10-23T00:01:37.883Z,30.30
2022-10-23T00:04:07.658Z,23.25
2022-10-23T00:06:35.574Z,23.73
2022-10-23T00:09:05.315Z,27.63
2022-10-23T00:11:32.739Z,24.87
2022-10-23T00:14:01.534Z,25.85
2022-10-23T00:16:29.109Z,23.35
2022-10-23T00:18:56.204Z,23.02
2022-10-23T00:21:23.867Z,24.33
2022-10-23T00:23:50.698Z,24.85
2022-10-23T00:26:17.670Z,23.65
2022-10-23T00:28:46.902Z,23.52
2022-10-23T00:33:41.941Z,26.83
2022-10-23T00:36:11.210Z,26.30
2022-10-23T00:38:38.722Z,23.23
2022-10-23T00:41:06.970Z,27.58
2022-10-23T00:43:35.110Z,27.70
2022-10-23T00:46:02.306Z,32.88
2022-10-23T00:48:29.491Z,22.77
2022-10-23T00:50:56.884Z,26.13
2022-10-23T00:53:25.088Z,28.02
2022-10-23T00:55:55.039Z,23.25
2022-10-23T00:58:23.828Z,23.70
2022-10-23T01:00:53.541Z,23.92
2022-10-23T01:03:28.317Z,20.95
2022-10-23T01:06:18.710Z,19.50
2022-10-23T01:08:58.128Z,19.07
2022-10-23T01:11:36.409Z,19.90
2022-10-23T01:14:18.214Z,24.17
2022-10-23T01:17:09.631Z,28.35
2022-10-23T01:19:56.527Z,28.17
2022-10-23T01:23:11.908Z,29.00
2022-10-23T01:26:02.819Z,31.08
2022-10-23T01:28:40.089Z,31.40
2022-10-23T01:31:14.451Z,29.70
2022-10-23T01:33:47.296Z,31.52
2022-10-23T01:36:21.908Z,33.25
2022-10-23T01:39:09.527Z,30.73
2022-10-23T01:42:08.859Z,30.80
2022-10-23T01:47:11.873Z,31.33
2022-10-23T01:50:13.433Z,30.20
2022-10-23T01:52:43.351Z,28.60
2022-10-23T01:55:12.626Z,33.40
2022-10-23T01:57:42.133Z,29.58
2022-10-23T02:00:13.415Z,26.60
2022-10-23T02:03:08.206Z,25.70
2022-10-23T02:05:35.667Z,26.35
2022-10-23T02:08:04.687Z,25.13
2022-10-23T02:10:41.793Z,27.23
2022-10-23T02:13:38.202Z,25.73
2022-10-23T02:16:31.379Z,24.63
2022-10-23T02:19:10.479Z,27.90
2022-10-23T02:21:46.327Z,24.75
2022-10-23T02:24:16.382Z,25.75
2022-10-23T02:26:57.993Z,25.05
2022-10-23T02:29:39.710Z,24.48
2022-10-23T02:32:10.127Z,26.23
2022-10-23T02:34:37.424Z,26.00
2022-10-23T02:37:04.739Z,27.17
2022-10-23T02:39:31.582Z,25.95
2022-10-23T02:42:15.003Z,25.05
2022-10-23T02:44:43.940Z,25.52
2022-10-23T02:47:13.823Z,23.42
2022-10-23T02:50:24.414Z,24.88
2022-10-23T02:53:13.740Z,21.73
2022-10-23T02:55:52.738Z,21.77
2022-10-23T02:58:27.523Z,21.17
2022-10-23T03:01:22.731Z,20.75
2022-10-23T03:03:56.886Z,19.92
2022-10-23T03:06:24.601Z,19.60
2022-10-23T03:09:06.137Z,19.10
2022-10-23T03:11:33.014Z,19.55
2022-10-23T03:14:00.250Z,21.33
2022-10-23T03:16:27.347Z,19.67
2022-10-23T03:18:55.307Z,22.52
2022-10-23T03:21:22.943Z,23.45
2022-10-23T03:23:52.821Z,21.35
2022-10-23T03:26:27.469Z,22.00
2022-10-23T03:28:54.473Z,20.90
2022-10-23T03:31:22.891Z,20.97
2022-10-23T03:33:55.101Z,21.75
2022-10-23T03:36:22.243Z,19.63
2022-10-23T03:38:49.540Z,18.42
2022-10-23T03:41:16.325Z,19.48
2022-10-23T03:43:43.775Z,16.55
2022-10-23T03:46:13.061Z,17.38
2022-10-23T03:51:07.038Z,21.27
2022-10-23T03:53:34.564Z,20.20
2022-10-23T03:56:03.941Z,19.90
2022-10-23T03:58:31.713Z,20.80
2022-10-23T04:00:58.826Z,20.15
2022-10-23T04:03:27.067Z,20.08
2022-10-23T04:05:53.909Z,17.25
2022-10-23T04:08:22.374Z,16.38
2022-10-23T04:10:52.349Z,16.90
2022-10-23T04:13:24.555Z,16.75
2022-10-23T04:15:52.943Z,14.70
2022-10-23T04:18:20.909Z,13.40
2022-10-23T04:20:49.501Z,10.43
2022-10-23T04:23:17.270Z,8.80
2022-10-23T04:28:33.271Z,8.45
2022-10-23T04:31:00.152Z,7.88
2022-10-23T04:33:27.250Z,7.28
2022-10-23T04:35:54.046Z,6.63
2022-10-23T04:38:20.977Z,5.38
2022-10-23T04:40:49.758Z,5.65
2022-10-23T04:43:20.741Z,5.60
2022-10-23T04:45:49.286Z,6.13
2022-10-23T04:48:16.242Z,6.03
2022-10-23T04:54:00.880Z,5.78
2022-10-23T04:56:46.323Z,5.82
2022-10-23T04:59:18.894Z,5.57
2022-10-23T05:01:47.365Z,5.35
2022-10-23T05:04:14.447Z,5.90
2022-10-23T05:07:17.062Z,4.97
2022-10-23T05:10:01.759Z,5.68
2022-10-23T05:12:37.422Z,5.13
2022-10-23T05:15:04.811Z,5.55
2022-10-23T05:17:41.964Z,5.28
2022-10-23T05:20:15.037Z,6.18
2022-10-23T05:22:44.184Z,7.30
2022-10-23T05:25:13.695Z,6.68
2022-10-23T05:27:45.840Z,6.22
2022-10-23T05:32:42.077Z,7.53
2022-10-23T05:35:13.524Z,6.47
2022-10-23T05:37:43.339Z,6.43
2022-10-23T05:40:14.689Z,6.43
2022-10-23T05:42:43.103Z,6.63
2022-10-23T05:45:13.100Z,6.10
2022-10-23T05:48:10.602Z,6.28
2022-10-23T05:51:20.399Z,6.03
2022-10-23T05:53:58.679Z,5.65
2022-10-23T05:56:46.106Z,5.70
2022-10-23T05:59:42.100Z,5.78
2022-10-23T06:02:26.989Z,5.55
2022-10-23T06:05:00.794Z,6.25
2022-10-23T06:07:46.267Z,5.35
2022-10-23T06:10:13.782Z,5.95
2022-10-23T06:12:44.484Z,5.63
2022-10-23T06:15:15.197Z,5.57
2022-10-23T06:18:00.895Z,6.57
2022-10-23T06:20:28.970Z,5.80
2022-10-23T06:23:13.845Z,5.86
2022-10-23T06:25:59.487Z,6.90
2022-10-23T06:28:37.242Z,5.95
2022-10-23T06:31:09.214Z,5.90
2022-10-23T06:33:36.079Z,6.10
2022-10-23T06:36:06.391Z,5.75
2022-10-23T06:38:37.735Z,5.03
2022-10-23T06:41:05.270Z,5.93
2022-10-23T06:43:36.343Z,5.03
2022-10-23T06:46:26.997Z,6.05
2022-10-23T06:49:13.143Z,5.13
2022-10-23T06:51:46.221Z,4.97
2022-10-23T06:54:14.652Z,5.57
2022-10-23T06:56:44.307Z,4.65
2022-10-23T06:59:11.899Z,4.75
2022-10-23T07:01:39.396Z,4.80
2022-10-23T07:04:07.417Z,4.97
2022-10-23T07:06:34.359Z,5.68
2022-10-23T07:09:01.478Z,5.80
2022-10-23T07:11:57.088Z,5.88
2022-10-23T07:14:33.816Z,4.90
2022-10-23T07:17:02.927Z,5.05
2022-10-23T07:19:29.926Z,5.68
2022-10-23T07:21:58.441Z,5.95
2022-10-23T07:24:57.415Z,5.50
2022-10-23T07:27:28.535Z,5.70
2022-10-23T07:32:28.800Z,4.70
2022-10-23T07:35:21.504Z,4.25
2022-10-23T07:38:07.875Z,4.57
2022-10-23T07:40:38.448Z,5.38
2022-10-23T07:43:11.314Z,4.18
2022-10-23T07:45:38.181Z,4.95
2022-10-23T07:48:16.757Z,4.00
2022-10-23T07:51:08.595Z,5.38
2022-10-23T07:53:40.175Z,5.10
2022-10-23T07:56:21.678Z,4.95
2022-10-23T07:59:15.023Z,4.50
2022-10-23T08:01:50.551Z,3.63
2022-10-23T08:04:19.785Z,3.60
2022-10-23T08:07:06.849Z,3.67
2022-10-23T08:09:40.110Z,3.97
2022-10-23T08:12:08.120Z,3.65
2022-10-23T08:14:35.247Z,3.88
2022-10-23T08:20:08.064Z,3.38
2022-10-23T08:22:40.934Z,3.10
2022-10-23T08:25:09.720Z,3.30
2022-10-23T08:27:36.784Z,3.05
2022-10-23T08:30:05.046Z,3.33
2022-10-23T08:32:31.979Z,3.78
2022-10-23T08:35:00.151Z,2.90
2022-10-23T08:37:30.239Z,2.90
2022-10-23T08:39:57.143Z,2.70
2022-10-23T08:42:42.151Z,2.50
2022-10-23T08:45:28.807Z,2.22
2022-10-23T08:48:13.810Z,3.13
2022-10-23T08:51:11.652Z,3.30
2022-10-23T08:54:04.119Z,2.28
2022-10-23T08:56:34.779Z,2.80
2022-10-23T08:59:20.543Z,2.92
2022-10-23T09:01:52.610Z,2.78
2022-10-23T09:04:19.715Z,2.38
2022-10-23T09:07:01.564Z,2.42
2022-10-23T09:09:47.023Z,2.22
2022-10-23T09:12:17.706Z,2.63
2022-10-23T09:14:56.445Z,2.55
2022-10-23T09:17:32.299Z,2.47
2022-10-23T09:20:25.213Z,1.60
2022-10-23T09:22:59.702Z,2.15
2022-10-23T09:25:34.138Z,2.03
2022-10-23T09:28:05.240Z,2.00
2022-10-23T09:30:32.812Z,2.72
2022-10-23T09:33:01.057Z,2.50
2022-10-23T09:35:30.675Z,2.00
2022-10-23T09:37:58.331Z,2.03
2022-10-23T09:40:42.170Z,3.05
2022-10-23T09:43:18.754Z,2.30
2022-10-23T09:45:57.398Z,2.00
2022-10-23T09:48:25.233Z,2.22
2022-10-23T09:50:58.502Z,2.50
2022-10-23T09:53:50.405Z,1.58
2022-10-23T09:56:24.736Z,1.30
2022-10-23T09:59:13.615Z,1.67
2022-10-23T10:01:58.429Z,1.63
2022-10-23T10:04:54.760Z,0.88
2022-10-23T10:07:32.216Z,1.33
2022-10-23T10:10:01.651Z,1.27
2022-10-23T10:12:43.548Z,1.00
2022-10-23T10:15:32.644Z,1.10
2022-10-23T10:18:16.120Z,1.10
2022-10-23T10:20:45.566Z,0.88
2022-10-23T10:23:15.219Z,0.93
2022-10-23T10:26:03.767Z,1.02
2022-10-23T10:28:39.480Z,0.50
2022-10-23T10:31:30.932Z,1.17
2022-10-23T10:33:57.694Z,1.15
2022-10-23T10:36:33.346Z,0.50
2022-10-23T10:39:03.385Z,0.90
2022-10-23T10:41:50.815Z,0.50
2022-10-23T10:44:46.796Z,0.55
2022-10-23T10:47:44.721Z,0.73
2022-10-23T10:50:25.167Z,0.63
2022-10-23T10:53:08.715Z,0.70
2022-10-23T10:55:42.443Z,0.90
2022-10-23T10:58:25.581Z,0.65
2022-10-23T11:00:59.367Z,0.93
2022-10-23T11:03:46.395Z,0.77
2022-10-23T11:06:16.855Z,0.73
2022-10-23T11:08:57.317Z,0.55
2022-10-23T11:11:38.020Z,0.73
2022-10-23T11:14:05.258Z,0.60
2022-10-23T11:16:37.778Z,0.90
2022-10-23T11:19:29.346Z,0.95
2022-10-23T11:22:09.960Z,0.70
2022-10-23T11:24:50.082Z,0.98
2022-10-23T11:27:33.563Z,0.75
2022-10-23T11:30:21.699Z,0.57
2022-10-23T11:32:57.617Z,0.60
2022-10-23T11:35:41.553Z,0.70
2022-10-23T11:38:24.232Z,0.77
2022-10-23T11:40:56.489Z,0.90
2022-10-23T11:43:33.569Z,0.85
2022-10-23T11:46:14.586Z,0.70
2022-10-23T11:48:44.351Z,0.60
2022-10-23T11:51:33.686Z,1.38
2022-10-23T11:54:15.376Z,0.75
2022-10-23T11:57:10.731Z,0.70
2022-10-23T11:59:49.488Z,0.50
2022-10-23T12:02:32.486Z,0.85
2022-10-23T12:05:07.395Z,0.60
2022-10-23T12:07:37.912Z,0.60
2022-10-23T12:10:17.867Z,0.50
2022-10-23T12:12:57.225Z,0.43
2022-10-23T12:15:24.919Z,0.60
2022-10-23T12:18:07.562Z,0.60
2022-10-23T12:20:46.691Z,0.47
2022-10-23T12:23:37.880Z,0.60
2022-10-23T12:26:07.483Z,0.70
2022-10-23T12:28:55.546Z,0.73
2022-10-23T12:31:31.141Z,0.45
2022-10-23T12:34:30.751Z,0.45
2022-10-23T12:37:25.426Z,0.50
2022-10-23T12:39:55.682Z,0.50
2022-10-23T12:42:25.118Z,0.60
2022-10-23T12:45:24.176Z,0.68
2022-10-23T12:47:52.379Z,0.70
2022-10-23T12:50:24.844Z,0.50
2022-10-23T12:52:56.327Z,0.47
2022-10-23T12:55:25.658Z,0.30
2022-10-23T12:57:54.730Z,0.40
2022-10-23T13:00:24.545Z,0.40
2022-10-23T13:02:59.111Z,0.30
2022-10-23T13:05:27.225Z,0.30
2022-10-23T13:07:54.602Z,0.20
2022-10-23T13:10:36.739Z,0.30
2022-10-23T13:13:08.026Z,0.28
2022-10-23T13:15:40.507Z,0.30
2022-10-23T13:18:09.133Z,0.40
2022-10-23T13:20:38.759Z,0.40
2022-10-23T13:23:10.976Z,0.50
2022-10-23T13:25:39.765Z,0.65
2022-10-23T13:30:48.592Z,0.40
2022-10-23T13:33:21.486Z,0.35
2022-10-23T13:36:06.483Z,0.30
2022-10-23T13:38:59.826Z,0.22
2022-10-23T13:41:28.923Z,0.65
2022-10-23T13:43:55.754Z,0.40
2022-10-23T13:46:27.683Z,0.22
2022-10-23T13:48:54.528Z,0.25
2022-10-23T13:51:23.998Z,0.30
2022-10-23T13:53:52.694Z,0.50
2022-10-23T13:56:21.789Z,0.32
2022-10-23T13:58:49.136Z,0.50
2022-10-23T14:01:27.657Z,0.35
2022-10-23T14:06:22.294Z,0.30
2022-10-23T14:08:49.312Z,0.52
2022-10-23T14:11:18.498Z,0.40
2022-10-23T14:13:46.221Z,0.45
2022-10-23T14:16:15.160Z,0.73
2022-10-23T14:18:41.980Z,0.45
2022-10-23T14:21:10.847Z,0.52
2022-10-23T14:26:05.526Z,0.60
2022-10-23T14:28:32.882Z,0.63
2022-10-23T14:31:07.443Z,0.60
2022-10-23T14:33:34.247Z,0.85
2022-10-23T14:36:01.176Z,1.05
2022-10-23T14:38:28.346Z,0.88
2022-10-23T14:40:55.182Z,0.98
2022-10-23T14:43:23.302Z,1.05
2022-10-23T14:45:50.174Z,1.35
2022-10-23T14:48:17.375Z,0.60
2022-10-23T14:50:49.278Z,0.80
2022-10-23T14:53:16.484Z,1.70
2022-10-23T14:55:43.352Z,1.17
2022-10-23T14:58:10.130Z,1.13
2022-10-23T15:00:36.915Z,1.30
2022-10-23T15:03:03.801Z,1.58
2022-10-23T15:05:30.659Z,1.10
2022-10-23T15:07:59.107Z,1.30
2022-10-23T15:10:25.896Z,1.75
2022-10-23T15:12:52.729Z,2.00
2022-10-23T15:15:19.570Z,2.13
2022-10-23T15:17:46.363Z,2.88
2022-10-23T15:20:13.244Z,2.65
2022-10-23T15:22:40.075Z,2.10
2022-10-23T15:25:07.724Z,1.77
2022-10-23T15:27:35.263Z,2.20
2022-10-23T15:30:02.162Z,2.90
2022-10-23T15:32:29.103Z,3.42
2022-10-23T15:34:58.339Z,3.88
2022-10-23T15:37:25.219Z,5.70
2022-10-23T15:39:52.567Z,6.18
2022-10-23T15:42:19.478Z,6.20
2022-10-23T15:44:46.233Z,7.07
2022-10-23T15:47:13.045Z,7.15
2022-10-23T15:49:40.066Z,7.07
2022-10-23T15:54:55.719Z,5.90
2022-10-23T15:57:22.514Z,6.07
2022-10-23T15:59:51.191Z,6.30
2022-10-23T16:02:18.238Z,6.50
2022-10-23T16:04:45.191Z,5.97
2022-10-23T16:07:12.026Z,6.80
2022-10-23T16:09:38.927Z,5.20
2022-10-23T16:12:06.057Z,5.57
2022-10-23T16:14:32.839Z,7.07
2022-10-23T16:16:59.704Z,8.40
2022-10-23T16:19:26.920Z,8.07
2022-10-23T16:21:54.069Z,9.20
2022-10-23T16:24:20.990Z,6.53
2022-10-23T16:26:53.195Z,7.72
2022-10-23T16:29:22.220Z,8.13
2022-10-23T16:31:49.212Z,6.00
2022-10-23T16:34:16.389Z,4.47
2022-10-23T16:36:43.410Z,5.07
2022-10-23T16:39:20.250Z,4.68
2022-10-23T16:42:05.730Z,7.18
2022-10-23T16:44:52.872Z,3.53
2022-10-23T16:47:19.979Z,2.90
2022-10-23T16:49:46.756Z,4.38
2022-10-23T16:52:13.584Z,8.02
2022-10-23T16:54:43.495Z,6.65
2022-10-23T16:57:10.282Z,6.05
2022-10-23T16:59:37.256Z,5.45
2022-10-23T17:02:04.243Z,8.80
2022-10-23T17:04:31.271Z,8.65
2022-10-23T17:06:58.158Z,8.50
2022-10-23T17:09:26.712Z,9.27
2022-10-23T17:11:54.284Z,9.63
2022-10-23T17:14:21.379Z,10.27
2022-10-23T17:16:52.359Z,10.98
2022-10-23T17:22:10.898Z,11.57
2022-10-23T17:24:39.442Z,10.55
2022-10-23T17:27:06.520Z,9.80
2022-10-23T17:29:33.672Z,9.25
2022-10-23T17:32:00.636Z,10.15
2022-10-23T17:34:27.522Z,11.68
2022-10-23T17:36:55.628Z,12.18
2022-10-23T17:39:28.260Z,11.93
2022-10-23T17:41:56.044Z,12.50
2022-10-23T17:44:23.454Z,11.57
2022-10-23T17:46:53.727Z,9.85
2022-10-23T17:49:22.111Z,11.18
2022-10-23T17:51:55.741Z,10.82
2022-10-23T17:54:24.402Z,10.45
2022-10-23T17:56:51.384Z,11.00
2022-10-23T17:59:19.790Z,12.20
2022-10-23T18:01:48.403Z,12.15
2022-10-23T18:04:18.152Z,13.30
2022-10-23T18:06:51.315Z,11.00
2022-10-23T18:09:19.248Z,9.93
2022-10-23T18:11:48.070Z,8.55
2022-10-23T18:16:46.017Z,7.25
2022-10-23T18:19:14.393Z,7.72
2022-10-23T18:21:41.323Z,8.35
2022-10-23T18:24:08.592Z,8.88
2022-10-23T18:26:37.771Z,9.45
2022-10-23T18:29:07.781Z,9.48
2022-10-23T18:31:36.022Z,10.10
2022-10-23T18:34:08.387Z,10.23
2022-10-23T18:36:40.801Z,8.60
2022-10-23T18:39:11.956Z,8.98
2022-10-23T18:41:41.596Z,5.43
2022-10-23T18:44:09.575Z,3.75
2022-10-23T18:46:36.572Z,4.03
2022-10-23T18:49:04.304Z,3.30
2022-10-23T18:51:33.731Z,3.63
2022-10-23T18:54:05.592Z,2.75
2022-10-23T18:56:34.260Z,3.40
2022-10-23T18:59:02.750Z,2.85
2022-10-23T19:01:31.014Z,3.72
2022-10-23T19:04:00.070Z,4.10
2022-10-23T19:06:28.172Z,3.67
2022-10-23T19:08:55.120Z,6.50
2022-10-23T19:11:24.257Z,3.13
2022-10-23T19:13:51.246Z,3.70
2022-10-23T19:16:23.006Z,3.67
2022-10-23T19:18:54.896Z,4.82
2022-10-23T19:21:31.293Z,4.65
2022-10-23T19:24:07.704Z,5.05
2022-10-23T19:26:37.295Z,10.35
2022-10-23T19:29:07.899Z,5.28
2022-10-23T19:31:35.056Z,4.53
2022-10-23T19:34:01.833Z,4.55
2022-10-23T19:36:28.699Z,3.63
2022-10-23T19:38:55.550Z,4.50
2022-10-23T19:41:22.445Z,5.63
2022-10-23T19:43:49.237Z,4.25
2022-10-23T19:46:16.383Z,4.90
2022-10-23T19:48:44.679Z,4.50
2022-10-23T19:51:13.478Z,6.13
2022-10-23T19:53:42.115Z,5.63
2022-10-23T19:56:12.921Z,6.88
2022-10-23T19:58:41.641Z,5.75
2022-10-23T20:01:11.913Z,7.43
2022-10-23T20:03:41.823Z,8.30
2022-10-23T20:06:14.138Z,7.55
2022-10-23T20:08:41.965Z,7.03
2022-10-23T20:11:09.883Z,7.40
2022-10-23T20:13:36.881Z,7.25
2022-10-23T20:16:04.194Z,7.28
2022-10-23T20:18:31.722Z,7.05
2022-10-23T20:21:01.835Z,7.10
2022-10-23T20:23:28.740Z,6.63
2022-10-23T20:25:55.531Z,7.75
2022-10-23T20:28:22.367Z,8.70
2022-10-23T20:30:49.203Z,10.35
2022-10-23T20:33:15.979Z,13.52
2022-10-23T20:35:43.306Z,14.55
2022-10-23T20:38:10.216Z,12.18
2022-10-23T20:40:37.438Z,10.93
2022-10-23T20:43:05.491Z,11.88
2022-10-23T20:45:32.356Z,14.57
2022-10-23T20:47:59.188Z,14.75
2022-10-23T20:50:26.014Z,16.10
2022-10-23T20:52:53.000Z,14.93
2022-10-23T20:55:20.019Z,18.25
2022-10-23T20:57:59.555Z,17.20
2022-10-23T21:00:26.565Z,16.02
2022-10-23T21:02:53.613Z,16.35
2022-10-23T21:05:20.547Z,14.55
2022-10-23T21:07:47.334Z,16.42
2022-10-23T21:10:14.631Z,16.38
2022-10-23T21:12:41.645Z,13.82
2022-10-23T21:15:09.457Z,14.93
2022-10-23T21:17:39.041Z,16.33
2022-10-23T21:20:06.340Z,20.83
2022-10-23T21:22:33.308Z,21.50
2022-10-23T21:25:01.743Z,22.05
2022-10-23T21:27:28.615Z,22.05
2022-10-23T21:29:55.504Z,21.40
2022-10-23T21:32:22.495Z,18.05
2022-10-23T21:34:49.290Z,17.33
2022-10-23T21:37:16.087Z,18.38
2022-10-23T21:39:44.246Z,18.70
2022-10-23T21:42:12.466Z,16.25
2022-10-23T21:44:39.459Z,17.65
2022-10-23T21:47:12.656Z,20.65
2022-10-23T21:49:59.271Z,20.88
2022-10-23T21:52:40.397Z,20.98
2022-10-23T21:55:27.266Z,28.27
2022-10-23T21:58:09.247Z,24.13
2022-10-23T22:00:42.811Z,27.85
2022-10-23T22:03:09.653Z,23.05
2022-10-23T22:05:36.724Z,22.63
2022-10-23T22:08:03.641Z,23.80
2022-10-23T22:10:30.559Z,22.70
2022-10-23T22:12:57.358Z,23.42
2022-10-23T22:15:24.259Z,25.33
2022-10-23T22:17:51.151Z,23.13
2022-10-23T22:20:18.125Z,18.63
2022-10-23T22:22:45.006Z,20.38
2022-10-23T22:25:11.894Z,24.23
2022-10-23T22:27:38.681Z,21.77
2022-10-23T22:30:06.439Z,17.58
2022-10-23T22:32:35.416Z,20.23
2022-10-23T22:35:03.246Z,19.73
2022-10-23T22:37:30.171Z,19.73
2022-10-23T22:39:57.086Z,18.23
2022-10-23T22:42:23.860Z,19.67
2022-10-23T22:44:51.046Z,18.48
2022-10-23T22:47:18.005Z,20.02
2022-10-23T22:49:44.799Z,22.52
2022-10-23T22:52:12.187Z,19.70
2022-10-23T22:54:39.083Z,19.35
2022-10-23T22:57:07.292Z,16.70
2022-10-23T22:59:34.142Z,13.55
2022-10-23T23:02:01.107Z,12.50
2022-10-23T23:04:43.300Z,13.10
2022-10-23T23:07:12.598Z,12.77
2022-10-23T23:12:09.245Z,11.88
2022-10-23T23:14:36.684Z,12.15
2022-10-23T23:17:05.451Z,10.73
2022-10-23T23:19:32.533Z,13.20
2022-10-23T23:22:00.195Z,13.52
2022-10-23T23:24:28.675Z,16.13
2022-10-23T23:26:55.539Z,15.20
2022-10-23T23:29:22.532Z,15.27
2022-10-23T23:31:49.362Z,15.55
2022-10-23T23:34:16.214Z,15.70
2022-10-23T23:36:44.671Z,15.68
2022-10-23T23:39:11.872Z,14.83
2022-10-23T23:41:38.770Z,14.48
2022-10-23T23:44:05.776Z,15.23
2022-10-23T23:46:32.604Z,14.77
2022-10-23T23:49:01.961Z,15.77
2022-10-23T23:51:29.449Z,13.45
2022-10-23T23:53:56.271Z,15.02
2022-10-23T23:56:23.377Z,14.20
2022-10-23T23:58:50.175Z,13.25
